Time;durP1;ratioP1;P1;durP2;ratioP2;P2;SDS_P1;SDS_P2;PMS_P1;PMS_P2;Temp;Humidity;BMP_temperature;BMP_pressure;BME280_temperature;BME280_humidity;BME280_pressure;Samples;Min_cycle;Max_cycle;Signal;HPM_P1;HPM_P2
2023/01/06 00:00:40;;;;;;;7.18;2.42;;;;;;;-17.96;59.20;99406.56;5073239;28;20032;-49
2023/01/06 00:03:07;;;;;;;4.78;2.38;;;;;;;-18.02;58.56;99391.09;5073961;28;20520;-49
2023/01/06 00:05:33;;;;;;;6.85;2.38;;;;;;;-18.01;58.36;99408.16;5073923;28;20043;-49
2023/01/06 00:07:59;;;;;;;6.32;2.20;;;;;;;-18.08;58.73;99413.13;5072012;28;20108;-50
2023/01/06 00:10:25;;;;;;;9.40;2.65;;;;;;;-18.11;59.02;99417.25;5073195;28;20024;-49
2023/01/06 00:12:50;;;;;;;5.28;2.25;;;;;;;-18.13;58.56;99424.03;5073555;28;20062;-53
2023/01/06 00:15:17;;;;;;;6.35;2.45;;;;;;;-18.09;58.67;99431.81;5073530;28;20054;-49
2023/01/06 00:17:44;;;;;;;11.63;2.85;;;;;;;-18.40;58.52;99374.72;5072955;28;20345;-49
2023/01/06 00:20:11;;;;;;;8.10;2.30;;;;;;;-18.65;58.44;99348.47;5073393;28;20040;-49
2023/01/06 00:22:39;;;;;;;7.68;2.25;;;;;;;-18.07;58.40;99419.06;5073513;28;20040;-50
2023/01/06 00:25:05;;;;;;;5.78;2.30;;;;;;;-18.26;58.41;99417.69;5072759;28;20463;-49
2023/01/06 00:27:31;;;;;;;9.30;2.72;;;;;;;-18.28;58.38;99430.41;5073653;28;20028;-50
2023/01/06 00:29:56;;;;;;;6.25;2.17;;;;;;;-18.64;58.38;99395.31;5073177;28;20035;-52
2023/01/06 00:32:22;;;;;;;5.40;1.80;;;;;;;-18.41;58.13;99430.91;5073009;28;20084;-52
2023/01/06 00:34:47;;;;;;;5.60;1.85;;;;;;;-18.47;58.38;99439.25;5073525;28;20036;-52
2023/01/06 00:37:13;;;;;;;5.43;2.83;;;;;;;-18.49;58.49;99451.09;5073214;28;20028;-51
2023/01/06 00:39:38;;;;;;;6.13;2.55;;;;;;;-18.68;58.61;99419.88;5072136;28;20021;-50
2023/01/06 00:42:04;;;;;;;6.00;2.38;;;;;;;-18.50;58.29;99460.44;5072301;28;20024;-48
2023/01/06 00:44:32;;;;;;;4.93;2.13;;;;;;;-18.53;58.11;99464.59;5072619;28;20036;-49
2023/01/06 00:46:57;;;;;;;8.88;2.40;;;;;;;-18.56;58.58;99469.63;5072877;28;20029;-49
2023/01/06 00:49:23;;;;;;;7.07;2.00;;;;;;;-18.54;58.04;99470.53;5072471;28;20115;-50
2023/01/06 00:51:48;;;;;;;8.85;2.35;;;;;;;-18.61;58.07;99472.03;5072899;28;20024;-49
2023/01/06 00:54:14;;;;;;;6.13;1.95;;;;;;;-18.70;57.72;99472.59;5072954;28;20028;-52
2023/01/06 00:56:44;;;;;;;6.35;2.10;;;;;;;-18.75;57.79;99474.16;5072651;28;20423;-49
2023/01/06 00:59:11;;;;;;;4.60;2.33;;;;;;;-18.81;57.89;99472.25;5072755;28;20509;-51
2023/01/06 01:01:37;;;;;;;5.20;2.17;;;;;;;-18.80;57.95;99485.91;5072568;28;20040;-47
2023/01/06 01:04:03;;;;;;;7.85;1.73;;;;;;;-18.83;57.94;99473.03;5072080;28;20066;-49
2023/01/06 01:06:28;;;;;;;6.70;2.17;;;;;;;-18.85;57.94;99478.09;5072701;28;20028;-50
2023/01/06 01:08:55;;;;;;;10.93;3.08;;;;;;;-18.75;58.10;99494.56;5072376;28;20091;-52
2023/01/06 01:14:06;;;;;;;6.32;2.42;;;;;;;-19.04;57.53;99509.84;5072246;28;20028;-53
2023/01/06 01:16:31;;;;;;;4.45;1.42;;;;;;;-19.07;58.01;99514.81;5072560;28;20028;-49
2023/01/06 01:18:57;;;;;;;4.38;1.42;;;;;;;-19.03;58.23;99515.81;5072306;28;20107;-50
2023/01/06 01:21:23;;;;;;;6.03;1.90;;;;;;;-19.13;57.68;99530.81;5072316;28;20021;-50
2023/01/06 01:23:48;;;;;;;7.72;2.05;;;;;;;-19.12;58.22;99530.00;5072806;28;20058;-48
2023/01/06 01:26:13;;;;;;;5.53;1.98;;;;;;;-19.18;57.73;99545.06;5072080;28;20097;-47
2023/01/06 01:28:39;;;;;;;4.68;2.10;;;;;;;-19.27;57.35;99535.44;5071154;28;20128;-47
2023/01/06 01:31:05;;;;;;;6.47;1.60;;;;;;;-19.31;57.30;99536.13;5072721;28;20090;-49
2023/01/06 01:33:31;;;;;;;7.05;1.92;;;;;;;-19.37;58.15;99538.47;5072418;28;20440;-50
2023/01/06 01:35:56;;;;;;;4.32;1.58;;;;;;;-19.38;57.21;99552.06;5071115;28;20033;-49
2023/01/06 01:38:25;;;;;;;5.20;2.03;;;;;;;-19.46;57.64;99540.72;5072026;28;20036;-52
2023/01/06 01:40:51;;;;;;;5.82;1.45;;;;;;;-19.36;57.83;99551.31;5072968;28;20037;-48
2023/01/06 01:43:16;;;;;;;3.42;1.45;;;;;;;-19.51;57.72;99535.44;5072450;28;20107;-49
2023/01/06 01:45:49;;;;;;;6.03;1.80;;;;;;;-19.38;57.51;99557.16;5071990;28;20116;-48
2023/01/06 01:48:44;;;;;;;3.70;1.67;;;;;;;-19.33;57.56;99568.38;5072200;28;20021;-50
2023/01/06 01:51:14;;;;;;;3.47;1.65;;;;;;;-19.36;57.62;99565.72;5067691;28;20090;-49
2023/01/06 01:53:44;;;;;;;5.00;1.65;;;;;;;-19.38;57.45;99568.25;5071459;28;20037;-49
2023/01/06 01:56:14;;;;;;;3.75;1.55;;;;;;;-19.41;57.58;99567.25;5055842;28;20025;-49
2023/01/06 01:58:47;;;;;;;3.70;1.33;;;;;;;-19.24;57.25;99573.81;5059392;28;20085;-49
2023/01/06 02:01:13;;;;;;;6.30;2.70;;;;;;;-19.34;57.27;99581.94;5076302;28;20056;-51
2023/01/06 02:03:40;;;;;;;6.28;1.92;;;;;;;-19.33;57.31;99585.38;5075927;28;20495;-50
2023/01/06 02:06:15;;;;;;;6.05;2.10;;;;;;;-19.44;57.19;99592.66;5075724;28;20090;-47
2023/01/06 02:09:01;;;;;;;5.70;1.73;;;;;;;-19.49;57.36;99587.38;5076438;28;20395;-50
2023/01/06 02:11:31;;;;;;;3.88;1.13;;;;;;;-19.35;57.27;99585.31;5075866;28;20078;-50
2023/01/06 02:14:15;;;;;;;4.28;2.13;;;;;;;-19.46;57.40;99594.28;5074606;28;20027;-50
2023/01/06 02:17:07;;;;;;;6.25;1.63;;;;;;;-19.50;57.57;99590.72;5075498;28;20151;-50
2023/01/06 02:19:48;;;;;;;4.35;1.55;;;;;;;-19.49;57.62;99590.81;5076146;28;20363;-48
2023/01/06 02:22:13;;;;;;;2.17;1.13;;;;;;;-19.49;57.28;99601.00;5075835;28;20780;-49
2023/01/06 02:25:10;;;;;;;3.63;1.40;;;;;;;-19.47;57.26;99603.59;5075214;28;20040;-49
2023/01/06 02:27:50;;;;;;;3.17;1.38;;;;;;;-19.42;57.39;99601.22;5075479;28;20427;-48
2023/01/06 02:30:48;;;;;;;4.20;1.65;;;;;;;-19.43;57.47;99609.69;5075752;28;20032;-48
2023/01/06 02:33:39;;;;;;;5.93;1.80;;;;;;;-19.44;57.11;99607.94;5075079;28;20558;-48
2023/01/06 02:36:19;;;;;;;3.80;1.25;;;;;;;-19.43;57.04;99617.34;5075079;28;20064;-48
2023/01/06 02:39:10;;;;;;;3.88;0.88;;;;;;;-19.46;57.06;99629.97;5074936;28;20558;-47
2023/01/06 02:41:42;;;;;;;5.40;1.75;;;;;;;-19.63;57.00;99620.91;5075270;28;20047;-47
2023/01/06 02:44:10;;;;;;;5.38;2.13;;;;;;;-19.65;56.78;99631.84;5075210;28;20161;-48
2023/01/06 02:47:03;;;;;;;4.60;1.75;;;;;;;-19.65;56.93;99639.47;5075041;28;20043;-49
2023/01/06 02:49:34;;;;;;;7.72;1.83;;;;;;;-19.69;57.29;99643.59;5074971;28;20024;-47
2023/01/06 02:52:08;;;;;;;5.18;1.35;;;;;;;-19.73;57.15;99646.00;5074915;28;20028;-51
2023/01/06 02:54:43;;;;;;;;;;;;;;;-19.63;57.38;99642.97;5075829;28;20020;-48
2023/01/06 02:57:35;;;;;;;6.65;1.38;;;;;;;-19.69;57.19;99652.94;5074940;28;20019;-46
2023/01/06 03:00:06;;;;;;;5.15;1.27;;;;;;;-19.82;57.05;99657.53;5075099;28;20066;-48
2023/01/06 03:02:35;;;;;;;5.35;1.65;;;;;;;-19.88;56.66;99667.50;5074889;28;20056;-49
2023/01/06 03:05:04;;;;;;;4.15;1.70;;;;;;;-19.81;56.86;99660.97;5073617;28;20037;-47
2023/01/06 03:07:31;;;;;;;4.35;1.95;;;;;;;-19.87;56.95;99665.84;5074794;28;20072;-49
2023/01/06 03:10:00;;;;;;;3.65;1.25;;;;;;;-19.79;57.15;99670.41;5075491;28;20089;-50
2023/01/06 03:12:34;;;;;;;3.70;1.42;;;;;;;-19.82;57.05;99667.75;5074534;28;20103;-49
2023/01/06 03:14:59;;;;;;;8.10;2.10;;;;;;;-19.92;56.99;99671.63;5074566;28;20081;-51
2023/01/06 03:17:25;;;;;;;4.45;1.58;;;;;;;-19.92;56.98;99670.78;5075188;28;20089;-49
2023/01/06 03:19:51;;;;;;;2.67;1.40;;;;;;;-19.92;56.88;99680.97;5073672;28;20048;-50
2023/01/06 03:22:18;;;;;;;3.03;1.25;;;;;;;-19.93;56.81;99694.53;5073372;28;20071;-48
2023/01/06 03:24:44;;;;;;;2.92;1.48;;;;;;;-19.99;57.03;99679.00;5074593;28;20024;-49
2023/01/06 03:27:10;;;;;;;3.15;1.58;;;;;;;-20.00;56.87;99688.31;5074720;28;20356;-49
2023/01/06 03:29:36;;;;;;;5.45;1.60;;;;;;;-20.19;57.02;99656.16;5074391;28;20067;-50
2023/01/06 03:32:32;;;;;;;4.80;1.77;;;;;;;-19.97;57.00;99688.44;5074087;28;20044;-48
2023/01/06 03:35:31;;;;;;;4.60;1.73;;;;;;;-19.93;57.17;99699.63;5075048;28;20055;-51
2023/01/06 03:38:03;;;;;;;2.92;1.38;;;;;;;-19.95;57.13;99699.56;5073512;28;20044;-50
2023/01/06 03:40:34;;;;;;;6.88;2.10;;;;;;;-19.96;57.23;99708.00;5074382;28;20049;-50
2023/01/06 03:43:14;;;;;;;7.10;1.83;;;;;;;-19.96;57.02;99699.50;5074227;28;20048;-48
2023/01/06 03:46:11;;;;;;;6.47;1.77;;;;;;;-19.93;56.90;99709.81;5074568;28;20044;-50
2023/01/06 03:49:14;;;;;;;6.15;2.17;;;;;;;-19.92;57.27;99714.97;5074219;28;20040;-51
2023/01/06 03:52:06;;;;;;;5.80;2.25;;;;;;;-19.94;57.09;99720.81;5069792;28;20601;-53
2023/01/06 03:54:34;;;;;;;5.05;1.90;;;;;;;-19.97;57.04;99715.63;5074092;28;20033;-50
2023/01/06 03:57:19;;;;;;;3.72;1.63;;;;;;;-20.04;56.98;99711.06;5074216;28;20036;-54
2023/01/06 04:00:00;;;;;;;4.90;2.08;;;;;;;-19.96;57.18;99730.94;5073634;28;20028;-55
2023/01/06 04:02:26;;;;;;;7.22;2.35;;;;;;;-20.00;56.92;99720.59;5073859;28;20067;-52
2023/01/06 04:05:15;;;;;;;8.70;2.53;;;;;;;-19.96;56.89;99725.00;5074088;28;20059;-54
2023/01/06 04:07:42;;;;;;;7.55;2.33;;;;;;;-19.96;57.11;99740.28;5074037;28;20071;-57
2023/01/06 04:10:09;;;;;;;12.38;4.18;;;;;;;-19.96;57.02;99746.22;5073592;28;20025;-49
2023/01/06 04:12:38;;;;;;;9.20;3.00;;;;;;;-20.01;56.91;99751.94;5072439;28;20035;-49
2023/01/06 04:15:04;;;;;;;6.43;2.40;;;;;;;-19.98;57.09;99754.66;5073713;28;20108;-50
2023/01/06 04:17:30;;;;;;;7.03;2.53;;;;;;;-20.07;57.05;99747.50;5073504;28;20031;-50
2023/01/06 04:19:55;;;;;;;8.00;2.50;;;;;;;-20.03;56.90;99751.91;5073683;28;20437;-52
2023/01/06 04:22:21;;;;;;;5.10;1.95;;;;;;;-20.03;57.24;99754.44;5073295;28;20089;-53
2023/01/06 04:24:46;;;;;;;7.93;1.98;;;;;;;-20.29;56.93;99730.44;5072720;28;20359;-50
2023/01/06 04:27:11;;;;;;;7.70;2.30;;;;;;;-20.16;56.99;99753.06;5073106;28;20024;-53
2023/01/06 04:29:37;;;;;;;5.15;1.98;;;;;;;-20.15;56.99;99769.22;5073000;28;20040;-51
2023/01/06 04:32:03;;;;;;;4.15;1.40;;;;;;;-20.43;56.94;99732.41;5073017;28;20084;-48
2023/01/06 04:34:29;;;;;;;7.30;1.90;;;;;;;-20.20;57.05;99771.59;5073324;28;20039;-50
2023/01/06 04:36:54;;;;;;;4.93;2.03;;;;;;;-20.21;57.16;99769.84;5073257;28;20017;-46
2023/01/06 04:39:20;;;;;;;3.92;1.63;;;;;;;-20.22;57.17;99781.69;5072860;28;20388;-49
2023/01/06 04:41:45;;;;;;;6.50;1.80;;;;;;;-20.24;56.85;99790.09;5072574;28;20055;-51
2023/01/06 04:44:11;;;;;;;5.32;2.50;;;;;;;-20.31;56.92;99788.97;5073162;28;20029;-48
2023/01/06 04:46:36;;;;;;;5.55;2.08;;;;;;;-20.31;57.08;99794.06;5073328;28;20082;-49
2023/01/06 04:49:02;;;;;;;6.22;2.15;;;;;;;-20.24;57.29;99810.47;5074233;28;20360;-52
2023/01/06 04:51:27;;;;;;;3.83;1.60;;;;;;;-20.28;57.22;99804.38;5073309;28;20025;-49
2023/01/06 04:53:53;;;;;;;9.40;2.15;;;;;;;-20.31;57.18;99805.91;5073145;28;20089;-50
2023/01/06 04:56:18;;;;;;;5.60;2.25;;;;;;;-20.36;57.15;99801.47;5073018;28;20036;-48
2023/01/06 04:58:43;;;;;;;6.63;1.95;;;;;;;-20.30;56.87;99821.25;5073153;28;20032;-50
2023/01/06 05:01:11;;;;;;;6.28;2.42;;;;;;;-20.33;57.06;99812.59;5072508;28;20414;-49
2023/01/06 05:03:37;;;;;;;3.35;1.48;;;;;;;-20.31;56.74;99816.97;5072353;28;20025;-46
2023/01/06 05:06:09;;;;;;;4.50;1.77;;;;;;;-20.29;56.95;99817.91;5073167;28;20044;-53
2023/01/06 05:08:36;;;;;;;7.50;2.13;;;;;;;-20.31;57.19;99824.63;5072260;28;20027;-50
2023/01/06 05:11:11;;;;;;;6.53;1.75;;;;;;;-20.34;56.87;99823.59;5072777;28;20444;-49
2023/01/06 05:13:37;;;;;;;6.55;2.38;;;;;;;-20.39;57.00;99816.63;5073108;28;20035;-50
2023/01/06 05:16:11;;;;;;;6.25;2.15;;;;;;;-20.32;57.11;99822.88;5072242;28;20044;-48
2023/01/06 05:18:37;;;;;;;6.07;1.98;;;;;;;-20.37;57.28;99821.81;5072248;28;20117;-46
2023/01/06 05:21:03;;;;;;;8.25;2.45;;;;;;;-20.37;56.98;99820.13;5072745;28;20052;-51
2023/01/06 05:23:28;;;;;;;5.00;2.22;;;;;;;-20.32;56.96;99822.00;5072644;28;20020;-50
2023/01/06 05:25:54;;;;;;;7.85;2.72;;;;;;;-20.33;57.36;99820.25;5071199;28;20128;-49
2023/01/06 05:28:20;;;;;;;16.35;3.63;;;;;;;-20.27;57.20;99829.03;5071872;28;20031;-51
2023/01/06 05:30:46;;;;;;;6.97;3.25;;;;;;;-20.24;57.14;99834.25;5072222;28;20028;-52
2023/01/06 05:33:12;;;;;;;13.52;4.15;;;;;;;-20.22;57.10;99830.09;5072064;28;20056;-54
2023/01/06 05:35:37;;;;;;;9.30;2.97;;;;;;;-20.17;57.31;99832.84;5071273;28;20047;-53
2023/01/06 05:38:02;;;;;;;7.50;2.47;;;;;;;-20.17;57.16;99834.50;5072410;28;20085;-50
2023/01/06 05:40:28;;;;;;;8.90;3.03;;;;;;;-20.12;57.08;99850.88;5072189;28;20037;-50
2023/01/06 05:42:54;;;;;;;8.43;2.60;;;;;;;-20.12;57.16;99850.88;5072464;28;20451;-50
2023/01/06 05:45:21;;;;;;;7.20;2.72;;;;;;;-20.12;56.99;99856.84;5071976;28;20035;-49
2023/01/06 05:47:47;;;;;;;9.68;2.90;;;;;;;-20.14;57.12;99847.38;5072138;28;20050;-51
2023/01/06 05:50:12;;;;;;;8.88;2.25;;;;;;;-20.05;57.13;99857.09;5072298;28;20032;-52
2023/01/06 05:52:37;;;;;;;7.97;2.67;;;;;;;-20.04;57.16;99858.84;5072444;28;20055;-52
2023/01/06 05:55:03;;;;;;;12.18;3.55;;;;;;;-20.05;57.10;99862.19;5071901;28;20037;-51
2023/01/06 05:57:32;;;;;;;9.60;2.88;;;;;;;-20.02;56.98;99875.06;5071838;28;20029;-46
2023/01/06 05:59:57;;;;;;;11.68;2.70;;;;;;;-20.07;56.41;99870.63;5072303;28;20348;-48
2023/01/06 06:02:23;;;;;;;9.63;3.15;;;;;;;-20.02;56.87;99883.59;5071396;28;20373;-47
2023/01/06 06:04:48;;;;;;;9.10;3.22;;;;;;;-19.99;56.52;99882.88;5071440;28;20036;-48
2023/01/06 06:07:14;;;;;;;7.88;1.90;;;;;;;-20.01;56.46;99881.91;5070935;28;20383;-50
2023/01/06 06:09:39;;;;;;;6.20;1.95;;;;;;;-19.96;56.79;99888.94;5072208;28;20021;-50
2023/01/06 06:12:05;;;;;;;9.10;2.85;;;;;;;-19.95;56.49;99894.94;5072444;28;20033;-53
2023/01/06 06:14:31;;;;;;;7.45;2.95;;;;;;;-19.91;56.55;99891.69;5071899;28;20052;-50
2023/01/06 06:16:56;;;;;;;10.63;2.47;;;;;;;-19.84;56.06;99898.75;5071835;28;20516;-50
2023/01/06 06:19:22;;;;;;;9.32;3.47;;;;;;;-19.79;56.37;99901.50;5071761;28;20112;-54
2023/01/06 06:21:48;;;;;;;8.18;2.63;;;;;;;-19.78;56.29;99909.22;5071347;28;20349;-58
2023/01/06 06:24:13;;;;;;;8.15;3.92;;;;;;;-19.75;56.03;99911.03;5071277;28;20036;-54
2023/01/06 06:26:38;;;;;;;7.38;3.10;;;;;;;-19.78;56.32;99910.91;5070043;28;20060;-52
2023/01/06 06:29:05;;;;;;;9.70;2.97;;;;;;;-19.69;56.08;99921.47;5073171;28;20020;-48
2023/01/06 06:31:32;;;;;;;7.95;2.78;;;;;;;-19.74;55.70;99922.13;5072837;28;20056;-51
2023/01/06 06:34:00;;;;;;;8.93;2.97;;;;;;;-19.68;55.82;99935.97;5071841;28;20063;-50
2023/01/06 06:36:27;;;;;;;11.35;3.22;;;;;;;-19.59;55.90;99943.13;5071429;28;20052;-51
2023/01/06 06:38:53;;;;;;;9.30;2.97;;;;;;;-19.62;55.55;99937.91;5071947;28;20060;-55
2023/01/06 06:41:20;;;;;;;8.32;2.95;;;;;;;-19.44;55.36;99953.13;5074219;28;20027;-55
2023/01/06 06:43:48;;;;;;;8.55;2.80;;;;;;;-19.31;55.37;99946.84;5075865;28;20342;-52
2023/01/06 06:46:13;;;;;;;9.43;3.25;;;;;;;-19.35;55.03;99914.38;5074422;28;20116;-53
2023/01/06 06:48:39;;;;;;;7.57;2.75;;;;;;;-19.10;54.95;99951.97;5073507;28;20024;-57
2023/01/06 06:51:15;;;;;;;6.00;2.53;;;;;;;-19.00;54.93;99944.69;5075381;28;20044;-52
2023/01/06 06:53:41;;;;;;;11.50;3.20;;;;;;;-18.25;56.06;99941.56;5075097;28;20131;-58
2023/01/06 06:56:08;;;;;;;8.70;3.25;;;;;;;-16.19;55.17;99910.69;5075229;28;20115;-56
2023/01/06 06:58:35;;;;;;;11.60;3.65;;;;;;;-13.36;50.61;99945.47;5074552;28;20028;-55
2023/01/06 07:01:08;;;;;;;10.88;3.38;;;;;;;-11.30;44.38;99908.75;5075137;28;20028;-57
2023/01/06 07:03:34;;;;;;;11.55;4.57;;;;;;;-9.40;41.53;99939.22;5074519;28;20044;-53
2023/01/06 07:06:02;;;;;;;12.15;4.20;;;;;;;-8.36;39.00;99939.25;5074631;28;20036;-51
2023/01/06 07:08:27;;;;;;;7.90;3.58;;;;;;;-8.33;38.76;99944.44;5074736;28;20445;-57
2023/01/06 07:10:53;;;;;;;9.55;3.90;;;;;;;-8.67;38.92;99942.75;5074732;28;20116;-51
2023/01/06 07:13:18;;;;;;;13.95;4.05;;;;;;;-8.77;39.54;99961.81;5073947;28;20032;-53
2023/01/06 07:15:44;;;;;;;10.85;3.95;;;;;;;-8.49;37.26;99934.97;5074375;28;20036;-55
2023/01/06 07:18:09;;;;;;;11.52;4.50;;;;;;;-7.74;35.39;99961.63;5074917;28;20441;-56
2023/01/06 07:20:37;;;;;;;11.32;4.32;;;;;;;-6.95;33.93;99961.22;5074382;28;20043;-55
2023/01/06 07:23:03;;;;;;;13.90;5.35;;;;;;;-6.05;33.86;99963.06;5074278;28;20083;-61
2023/01/06 07:25:29;;;;;;;16.45;5.00;;;;;;;-5.25;32.79;99952.53;5074219;28;20111;-56
2023/01/06 07:27:56;;;;;;;12.65;5.47;;;;;;;-4.74;30.81;99950.94;5071355;28;20036;-54
2023/01/06 07:30:23;;;;;;;12.48;4.97;;;;;;;-4.65;29.74;99961.22;5073745;28;20524;-56
2023/01/06 07:32:50;;;;;;;11.50;4.55;;;;;;;-4.94;29.90;99967.78;5073119;28;20067;-55
2023/01/06 07:35:15;;;;;;;14.95;5.07;;;;;;;-5.86;29.50;99965.44;5072370;28;20364;-58
2023/01/06 07:37:41;;;;;;;15.38;5.35;;;;;;;-7.16;31.68;99983.91;5074236;28;20032;-60
2023/01/06 07:40:07;;;;;;;16.77;5.47;;;;;;;-8.67;33.85;99988.63;5074213;28;20040;-55
2023/01/06 07:42:34;;;;;;;16.10;5.75;;;;;;;-10.04;35.10;99997.66;5073565;28;20516;-54
2023/01/06 07:44:59;;;;;;;14.70;5.38;;;;;;;-11.29;36.01;100004.38;5074153;28;20063;-55
2023/01/06 07:47:25;;;;;;;13.85;4.72;;;;;;;-12.49;37.56;100014.84;5074088;28;20129;-57
2023/01/06 07:49:50;;;;;;;23.77;5.53;;;;;;;-13.64;38.80;100029.94;5073238;28;20428;-55
2023/01/06 07:52:16;;;;;;;20.02;5.75;;;;;;;-14.50;41.09;100024.59;5073156;28;20177;-53
2023/01/06 07:54:41;;;;;;;14.65;4.88;;;;;;;-15.15;41.85;100035.03;5074088;28;20436;-54
2023/01/06 07:57:06;;;;;;;13.60;4.97;;;;;;;-15.65;42.98;100048.16;5074257;28;20032;-53
2023/01/06 07:59:32;;;;;;;10.45;4.30;;;;;;;-16.03;43.92;100047.94;5073405;28;20033;-55
2023/01/06 08:01:57;;;;;;;14.18;4.57;;;;;;;-16.35;44.46;100041.00;5073434;28;20039;-51
2023/01/06 08:04:23;;;;;;;17.20;4.32;;;;;;;-16.62;45.05;100041.84;5073945;28;20021;-53
2023/01/06 08:06:48;;;;;;;12.80;4.32;;;;;;;-16.82;45.18;100043.72;5073631;28;20457;-54
2023/01/06 08:09:14;;;;;;;14.63;4.80;;;;;;;-16.80;46.20;100051.50;5073502;28;20032;-55
2023/01/06 08:11:39;;;;;;;14.27;5.15;;;;;;;-16.90;46.31;100058.84;5077999;28;20024;-54
2023/01/06 08:14:04;;;;;;;20.58;4.38;;;;;;;-17.05;46.40;100059.22;5073834;28;20028;-54
2023/01/06 08:16:30;;;;;;;19.65;7.20;;;;;;;-17.10;46.58;100065.03;5072169;28;20024;-52
2023/01/06 08:18:55;;;;;;;11.27;5.10;;;;;;;-17.08;46.79;100060.81;5072999;28;20024;-55
2023/01/06 08:21:21;;;;;;;13.80;4.65;;;;;;;-17.04;46.42;100057.53;5073101;28;20421;-51
2023/01/06 08:23:46;;;;;;;18.17;4.93;;;;;;;-17.17;46.27;100035.78;5072629;28;20388;-53
2023/01/06 08:26:14;;;;;;;18.23;4.88;;;;;;;-17.03;46.48;100072.09;5073100;28;20056;-57
2023/01/06 08:28:41;;;;;;;12.20;4.53;;;;;;;-17.01;46.68;100075.56;5072955;28;20423;-55
2023/01/06 08:31:09;;;;;;;16.08;4.85;;;;;;;-16.89;46.75;100073.38;5072279;28;20141;-58
2023/01/06 08:33:34;;;;;;;15.90;5.82;;;;;;;-16.85;46.77;100076.94;5069212;28;20463;-60
2023/01/06 08:36:02;;;;;;;14.05;5.03;;;;;;;-16.95;46.65;100068.06;5072786;28;20131;-58
2023/01/06 08:38:30;;;;;;;11.55;5.15;;;;;;;-17.03;47.06;100064.41;5072519;28;20020;-57
2023/01/06 08:40:57;;;;;;;19.65;4.88;;;;;;;-17.06;46.65;100072.00;5072578;28;20028;-60
2023/01/06 08:43:23;;;;;;;20.27;6.00;;;;;;;-17.00;47.28;100085.00;5071728;28;20056;-57
2023/01/06 08:45:50;;;;;;;16.40;5.38;;;;;;;-17.25;46.85;100073.00;5072903;28;20032;-60
2023/01/06 08:48:15;;;;;;;14.57;5.57;;;;;;;-17.55;47.13;100051.50;5072924;28;20044;-59
2023/01/06 08:50:41;;;;;;;18.85;5.63;;;;;;;-17.41;47.58;100089.50;5072231;28;20112;-60
2023/01/06 08:53:07;;;;;;;17.05;4.82;;;;;;;-17.42;47.88;100090.31;5072356;28;20064;-58
2023/01/06 08:55:36;;;;;;;15.32;5.65;;;;;;;-17.39;47.90;100095.53;5071247;28;20024;-57
2023/01/06 08:58:01;;;;;;;14.75;5.35;;;;;;;-17.34;48.46;100099.16;5072194;28;20029;-60
2023/01/06 09:00:27;;;;;;;22.05;5.45;;;;;;;-17.26;48.37;100091.75;5070781;28;20440;-62
2023/01/06 09:02:52;;;;;;;16.23;5.43;;;;;;;-17.47;48.21;100059.47;5071513;28;20043;-62
2023/01/06 09:05:18;;;;;;;14.90;5.05;;;;;;;-17.14;47.91;100096.44;5071153;28;20032;-59
2023/01/06 09:07:43;;;;;;;16.83;5.22;;;;;;;-17.07;48.31;100085.63;5071915;28;20124;-54
2023/01/06 09:10:09;;;;;;;13.35;4.78;;;;;;;-17.26;47.80;100063.59;5072065;28;20028;-57
2023/01/06 09:12:34;;;;;;;10.98;4.18;;;;;;;-17.13;47.99;100118.66;5071519;28;20239;-56
2023/01/06 09:15:00;;;;;;;15.48;4.88;;;;;;;-17.14;48.32;100106.66;5072549;28;20464;-54
2023/01/06 09:17:25;;;;;;;17.17;5.40;;;;;;;-17.26;48.75;100114.78;5072494;28;20076;-54
2023/01/06 09:19:50;;;;;;;19.10;6.00;;;;;;;-17.26;48.91;100117.34;5070959;28;20024;-57
2023/01/06 09:22:16;;;;;;;15.60;5.13;;;;;;;-17.36;49.16;100122.13;5072215;28;20032;-58
2023/01/06 09:24:41;;;;;;;16.27;5.47;;;;;;;-17.50;49.04;100097.72;5072532;28;20193;-57
2023/01/06 09:27:07;;;;;;;15.55;5.63;;;;;;;-17.34;49.27;100123.06;5072024;28;20052;-55
2023/01/06 09:29:32;;;;;;;9.15;4.45;;;;;;;-17.52;49.46;100114.69;5070438;28;20409;-57
2023/01/06 09:31:58;;;;;;;11.77;5.03;;;;;;;-17.52;49.70;100096.78;5072146;28;20040;-53
2023/01/06 09:34:23;;;;;;;18.05;5.70;;;;;;;-17.57;50.01;100081.28;5072521;28;20047;-57
2023/01/06 09:36:49;;;;;;;20.60;6.60;;;;;;;-17.56;49.92;100082.13;5069250;28;20064;-54
2023/01/06 09:39:14;;;;;;;12.75;4.97;;;;;;;-17.49;50.17;100068.75;5072147;28;20108;-57
2023/01/06 09:41:48;;;;;;;16.45;5.30;;;;;;;-17.36;50.20;100086.31;5072190;28;20090;-55
2023/01/06 09:44:19;;;;;;;20.13;5.80;;;;;;;-17.30;50.21;100101.03;5072129;28;20020;-57
2023/01/06 09:46:48;;;;;;;14.82;5.53;;;;;;;-17.37;49.94;100099.91;5071980;28;20056;-55
2023/01/06 09:49:42;;;;;;;24.45;7.50;;;;;;;-17.38;49.93;100097.28;5071892;28;20020;-57
2023/01/06 09:52:16;;;;;;;15.85;5.25;;;;;;;-17.50;50.12;100098.59;5071853;28;20058;-54
2023/01/06 09:54:53;;;;;;;15.43;4.72;;;;;;;-17.58;50.54;100094.91;5071690;28;20449;-55
2023/01/06 09:57:29;;;;;;;15.18;6.15;;;;;;;-17.64;50.86;100095.53;5069213;28;20460;-60
2023/01/06 09:59:58;;;;;;;17.33;6.63;;;;;;;-17.75;50.98;100089.13;5051831;28;20044;-62
2023/01/06 10:02:40;;;;;;;13.23;4.40;;;;;;;-17.73;50.72;100107.94;5051857;28;20072;-63
2023/01/06 10:05:17;;;;;;;21.90;7.47;;;;;;;-17.69;51.23;100103.84;5050417;28;20064;-60
2023/01/06 10:08:02;;;;;;;20.73;6.00;;;;;;;-17.78;51.16;100102.69;5051749;28;20483;-66
2023/01/06 10:10:42;;;;;;;10.93;4.95;;;;;;;-17.86;51.19;100111.72;5051763;28;20029;-60
2023/01/06 10:13:19;;;;;;;16.20;5.28;;;;;;;-17.85;51.23;100120.28;5061468;28;20047;-60
2023/01/06 10:16:07;;;;;;;19.80;4.72;;;;;;;-17.75;51.93;100118.13;5074327;28;20405;-61
2023/01/06 10:18:55;;;;;;;11.55;4.28;;;;;;;-17.62;51.36;100106.69;5075349;28;20052;-62
2023/01/06 10:21:37;;;;;;;14.23;4.32;;;;;;;-17.63;51.60;100101.50;5075558;28;20035;-61
2023/01/06 10:24:27;;;;;;;14.20;6.18;;;;;;;-17.56;51.68;100111.16;5075104;28;20032;-62
2023/01/06 10:26:57;;;;;;;16.75;4.68;;;;;;;-17.44;51.66;100113.31;5075177;28;20044;-61
2023/01/06 10:29:28;;;;;;;19.60;7.65;;;;;;;-17.35;51.81;100117.91;5075366;28;20074;-63
2023/01/06 10:31:57;;;;;;;11.73;4.22;;;;;;;-17.20;51.74;100108.19;5073624;28;20024;-63
2023/01/06 10:34:27;;;;;;;13.13;4.45;;;;;;;-17.02;51.62;100114.81;5075301;28;20040;-62
2023/01/06 10:37:09;;;;;;;15.95;5.18;;;;;;;-16.84;51.33;100119.66;5074944;28;20086;-64
2023/01/06 10:39:38;;;;;;;11.57;4.57;;;;;;;-16.69;50.94;100126.16;5075476;28;20094;-60
2023/01/06 10:45:13;;;;;;;15.32;4.90;;;;;;;-16.61;50.46;100115.34;5076048;28;20040;-63
2023/01/06 10:47:41;;;;;;;15.07;6.00;;;;;;;-16.67;50.09;100130.47;5074970;28;20283;-60
2023/01/06 10:50:12;;;;;;;15.40;5.38;;;;;;;-16.72;49.96;100139.72;5073747;28;20032;-62
2023/01/06 10:52:38;;;;;;;15.02;5.00;;;;;;;-16.77;50.33;100148.94;5074834;28;20443;-60
2023/01/06 10:55:04;;;;;;;17.38;4.85;;;;;;;-16.81;50.64;100137.69;5074628;28;20021;-60
2023/01/06 10:57:39;;;;;;;13.20;4.75;;;;;;;-17.04;50.46;100103.63;5074824;28;20020;-63
2023/01/06 11:00:07;;;;;;;15.88;5.50;;;;;;;-16.81;50.42;100145.38;5075105;28;20048;-61
2023/01/06 11:02:33;;;;;;;12.20;5.03;;;;;;;-17.02;50.42;100107.13;5074841;28;20036;-62
2023/01/06 11:05:01;;;;;;;14.05;4.90;;;;;;;-16.94;50.35;100133.84;5074245;28;20033;-63
2023/01/06 11:07:29;;;;;;;14.50;5.15;;;;;;;-17.01;50.19;100149.84;5074839;28;20036;-62
2023/01/06 11:09:55;;;;;;;14.88;5.32;;;;;;;-17.09;50.73;100147.00;5074705;28;20032;-63
2023/01/06 11:12:27;;;;;;;12.82;5.10;;;;;;;-17.28;50.89;100112.19;5074110;28;20137;-62
2023/01/06 11:15:01;;;;;;;15.63;4.85;;;;;;;-17.07;50.96;100144.50;5072875;28;20075;-62
2023/01/06 11:17:30;;;;;;;13.77;5.50;;;;;;;-17.00;51.68;100154.13;5074732;28;20029;-61
2023/01/06 11:20:21;;;;;;;15.82;4.70;;;;;;;-16.86;51.73;100152.03;5073396;28;20063;-60
2023/01/06 11:22:47;;;;;;;17.60;6.82;;;;;;;-16.93;51.01;100153.50;5073464;28;20066;-60
2023/01/06 11:25:18;;;;;;;15.40;6.50;;;;;;;-16.87;51.18;100152.84;5073781;28;20024;-62
2023/01/06 11:27:44;;;;;;;15.80;5.60;;;;;;;-16.91;51.37;100157.00;5074567;28;20056;-61
2023/01/06 11:30:24;;;;;;;19.52;7.20;;;;;;;-16.89;51.73;100152.78;5074339;28;20603;-61
2023/01/06 11:32:50;;;;;;;15.15;5.88;;;;;;;-16.94;51.86;100156.03;5073240;28;20052;-61
2023/01/06 11:35:20;;;;;;;12.73;5.03;;;;;;;-16.85;52.14;100160.63;5074354;28;20102;-61